PWSweather.com
Personal Weather Stations
Station Observations
KCAOCEAN4
Jeffries Ranch, Oceanside, CA 92057

Jeffries RanchOceanside, CA 92057

Lat: 33.2463208, Lon: -117.25335080000002

Elevation: 207

Station Type: Davis Vantage Vue

jeffriesranchweather.com

High Low Average
Temperature 77.9°F25.5°C 45.5°F7.5°C 56.6°F13.7°C
Dew Point 58.3°F14.6°C 42.1°F5.6°C 48.9°F9.4°C
Winds 8.9 mph 14.3 kmh Calm Calm 2.0 mph SE3.2 kmh SE
Wind Gusts 15.0 mph24.1 kmh -- 5.0 mph8.0 kmh
Humidity 92% 37% 78%
Pressure 30.10 in1019.3 mb 29.98 in1015.2 mb -
Precipitation 0.00 in0.0 mm - -
Hour Temp Dew Point Humidity Winds Wind Gusts Pressure Precip Precip Rate Daily Precip Total
12:00 AM 52.0°F11.1°C 47.8°F8.8°C 86% 0.9 mph E1.4 kmh E 2.0 mph3.2 kmh 30.06 in1017.9 mb 0.00 in0.0 mm 0.00 in0.0 mm 0.00 in0.0 mm
12:10 AM 51.4°F10.8°C 47.5°F8.6°C 86% 0.9 mph E1.4 kmh E 3.0 mph4.8 kmh 30.06 in1017.9 mb 0.00 in0.0 mm 0.00 in0.0 mm 0.00 in0.0 mm
12:20 AM 50.9°F10.5°C 47.1°F8.4°C 87% Calm Calm 0.9 mph1.4 kmh 30.06 in1017.9 mb 0.00 in0.0 mm 0.00 in0.0 mm 0.00 in0.0 mm
12:30 AM 50.5°F10.3°C 47.1°F8.4°C 88% 0.9 mph SE1.4 kmh SE 2.0 mph3.2 kmh 30.06 in1017.9 mb 0.00 in0.0 mm 0.00 in0.0 mm 0.00 in0.0 mm
12:40 AM 50.7°F10.4°C 47.3°F8.5°C 88% Calm Calm 0.9 mph1.4 kmh 30.06 in1017.9 mb 0.00 in0.0 mm 0.00 in0.0 mm 0.00 in0.0 mm
12:50 AM 50.7°F10.4°C 46.9°F8.3°C 87% 0.9 mph ESE1.4 kmh ESE 2.0 mph3.2 kmh 30.06 in1017.9 mb 0.00 in0.0 mm 0.00 in0.0 mm 0.00 in0.0 mm
01:00 AM 50.5°F10.3°C 47.1°F8.4°C 88% Calm Calm 0.9 mph1.4 kmh 30.06 in1017.9 mb 0.00 in0.0 mm 0.00 in0.0 mm 0.00 in0.0 mm
01:10 AM 50.4°F10.2°C 47.3°F8.5°C 89% 0.9 mph ESE1.4 kmh ESE 2.9 mph4.7 kmh 30.06 in1017.9 mb 0.00 in0.0 mm 0.00 in0.0 mm 0.00 in0.0 mm
01:20 AM 51.1°F10.6°C 47.3°F8.5°C 87% 0.9 mph ESE1.4 kmh ESE 2.0 mph3.2 kmh 30.06 in1017.9 mb 0.00 in0.0 mm 0.00 in0.0 mm 0.00 in0.0 mm
01:30 AM 51.3°F10.7°C 47.3°F8.5°C 86% 2.0 mph E3.2 kmh E 4.0 mph6.4 kmh 30.06 in1017.9 mb 0.00 in0.0 mm 0.00 in0.0 mm 0.00 in0.0 mm
01:40 AM 51.3°F10.7°C 47.5°F8.6°C 87% 0.9 mph NNE1.4 kmh NNE 2.9 mph4.7 kmh 30.05 in1017.6 mb 0.00 in0.0 mm 0.00 in0.0 mm 0.00 in0.0 mm
01:50 AM 50.7°F10.4°C 46.8°F8.2°C 86% 0.9 mph E1.4 kmh E 4.0 mph6.4 kmh 30.05 in1017.6 mb 0.00 in0.0 mm 0.00 in0.0 mm 0.00 in0.0 mm
02:00 AM 50.2°F10.1°C 46.4°F8.0°C 87% Calm Calm 3.0 mph4.8 kmh 30.06 in1017.9 mb 0.00 in0.0 mm 0.00 in0.0 mm 0.00 in0.0 mm
02:10 AM 50.4°F10.2°C 46.6°F8.1°C 87% 2.0 mph E3.2 kmh E 5.0 mph8.0 kmh 30.05 in1017.6 mb 0.00 in0.0 mm 0.00 in0.0 mm 0.00 in0.0 mm
02:20 AM 50.0°F10.0°C 46.2°F7.9°C 87% 2.0 mph ENE3.2 kmh ENE 6.0 mph9.7 kmh 30.04 in1017.3 mb 0.00 in0.0 mm 0.00 in0.0 mm 0.00 in0.0 mm
02:30 AM 49.8°F9.9°C 45.9°F7.7°C 86% 2.0 mph ESE3.2 kmh ESE 4.9 mph7.9 kmh 30.04 in1017.3 mb 0.00 in0.0 mm 0.00 in0.0 mm 0.00 in0.0 mm
02:40 AM 49.8°F9.9°C 46.0°F7.8°C 87% 2.0 mph E3.2 kmh E 2.9 mph4.7 kmh 30.04 in1017.3 mb 0.00 in0.0 mm 0.00 in0.0 mm 0.00 in0.0 mm
02:50 AM 49.6°F9.8°C 45.7°F7.6°C 86% 2.0 mph ESE3.2 kmh ESE 4.0 mph6.4 kmh 30.04 in1017.3 mb 0.00 in0.0 mm 0.00 in0.0 mm 0.00 in0.0 mm
03:00 AM 49.6°F9.8°C 45.7°F7.6°C 86% 0.9 mph E1.4 kmh E 2.9 mph4.7 kmh 30.04 in1017.3 mb 0.00 in0.0 mm 0.00 in0.0 mm 0.00 in0.0 mm
03:10 AM 49.8°F9.9°C 45.5°F7.5°C 85% 0.9 mph SE1.4 kmh SE 4.0 mph6.4 kmh 30.04 in1017.3 mb 0.00 in0.0 mm 0.00 in0.0 mm 0.00 in0.0 mm
03:20 AM 50.0°F10.0°C 45.7°F7.6°C 85% 2.9 mph E4.7 kmh E 6.0 mph9.7 kmh 30.03 in1016.9 mb 0.00 in0.0 mm 0.00 in0.0 mm 0.00 in0.0 mm
03:30 AM 49.6°F9.8°C 45.3°F7.4°C 85% 0.9 mph ESE1.4 kmh ESE 2.9 mph4.7 kmh 30.03 in1016.9 mb 0.00 in0.0 mm 0.00 in0.0 mm 0.00 in0.0 mm
03:40 AM 49.6°F9.8°C 45.7°F7.6°C 86% Calm Calm 2.0 mph3.2 kmh 30.04 in1017.3 mb 0.00 in0.0 mm 0.00 in0.0 mm 0.00 in0.0 mm
03:50 AM 49.5°F9.7°C 45.1°F7.3°C 85% Calm Calm 2.0 mph3.2 kmh 30.04 in1017.3 mb 0.00 in0.0 mm 0.00 in0.0 mm 0.00 in0.0 mm
04:00 AM 49.6°F9.8°C 45.3°F7.4°C 85% 0.9 mph ENE1.4 kmh ENE 3.0 mph4.8 kmh 30.04 in1017.3 mb 0.00 in0.0 mm 0.00 in0.0 mm 0.00 in0.0 mm
04:10 AM 49.5°F9.7°C 45.1°F7.3°C 85% 2.0 mph E3.2 kmh E 2.9 mph4.7 kmh 30.04 in1017.3 mb 0.00 in0.0 mm 0.00 in0.0 mm 0.00 in0.0 mm
04:20 AM 49.8°F9.9°C 45.1°F7.3°C 84% 2.9 mph E4.7 kmh E 4.9 mph7.9 kmh 30.03 in1016.9 mb 0.00 in0.0 mm 0.00 in0.0 mm 0.00 in0.0 mm
04:30 AM 49.1°F9.5°C 44.8°F7.1°C 85% 0.9 mph E1.4 kmh E 4.0 mph6.4 kmh 30.03 in1016.9 mb 0.00 in0.0 mm 0.00 in0.0 mm 0.00 in0.0 mm
04:40 AM 49.5°F9.7°C 44.6°F7.0°C 83% 0.9 mph NE1.4 kmh NE 2.9 mph4.7 kmh 30.03 in1016.9 mb 0.00 in0.0 mm 0.00 in0.0 mm 0.00 in0.0 mm
04:50 AM 48.9°F9.4°C 44.2°F6.8°C 84% 0.9 mph E1.4 kmh E 4.0 mph6.4 kmh 30.03 in1016.9 mb 0.00 in0.0 mm 0.00 in0.0 mm 0.00 in0.0 mm
05:00 AM 48.6°F9.2°C 44.2°F6.8°C 85% 2.9 mph E4.7 kmh E 5.0 mph8.0 kmh 30.03 in1016.9 mb 0.00 in0.0 mm 0.00 in0.0 mm 0.00 in0.0 mm
05:10 AM 48.6°F9.2°C 44.2°F6.8°C 85% 2.9 mph E4.7 kmh E 4.0 mph6.4 kmh 30.03 in1016.9 mb 0.00 in0.0 mm 0.00 in0.0 mm 0.00 in0.0 mm
05:20 AM 48.7°F9.3°C 44.1°F6.7°C 84% 2.0 mph E3.2 kmh E 4.9 mph7.9 kmh 30.03 in1016.9 mb 0.00 in0.0 mm 0.00 in0.0 mm 0.00 in0.0 mm
05:30 AM 48.4°F9.1°C 43.7°F6.5°C 84% 0.9 mph SE1.4 kmh SE 2.9 mph4.7 kmh 30.03 in1016.9 mb 0.00 in0.0 mm 0.00 in0.0 mm 0.00 in0.0 mm
05:40 AM 48.2°F9.0°C 43.5°F6.4°C 84% 0.9 mph ENE1.4 kmh ENE 2.9 mph4.7 kmh 30.03 in1016.9 mb 0.00 in0.0 mm 0.00 in0.0 mm 0.00 in0.0 mm
05:50 AM 47.8°F8.8°C 43.2°F6.2°C 84% 0.9 mph E1.4 kmh E 3.0 mph4.8 kmh 30.03 in1016.9 mb 0.00 in0.0 mm 0.00 in0.0 mm 0.00 in0.0 mm
06:00 AM 48.4°F9.1°C 43.5°F6.4°C 83% 2.9 mph ENE4.7 kmh ENE 6.0 mph9.7 kmh 30.03 in1016.9 mb 0.00 in0.0 mm 0.00 in0.0 mm 0.00 in0.0 mm
06:10 AM 48.6°F9.2°C 43.3°F6.3°C 82% 2.9 mph E4.7 kmh E 4.0 mph6.4 kmh 30.03 in1016.9 mb 0.00 in0.0 mm 0.00 in0.0 mm 0.00 in0.0 mm
06:20 AM 48.4°F9.1°C 43.2°F6.2°C 82% 2.9 mph ENE4.7 kmh ENE 4.0 mph6.4 kmh 30.03 in1016.9 mb 0.00 in0.0 mm 0.00 in0.0 mm 0.00 in0.0 mm
06:30 AM 47.5°F8.6°C 42.6°F5.9°C 83% 0.9 mph ESE1.4 kmh ESE 2.9 mph4.7 kmh 30.04 in1017.3 mb 0.00 in0.0 mm 0.00 in0.0 mm 0.00 in0.0 mm
06:40 AM 47.5°F8.6°C 42.6°F5.9°C 83% 2.0 mph ESE3.2 kmh ESE 2.9 mph4.7 kmh 30.04 in1017.3 mb 0.00 in0.0 mm 0.00 in0.0 mm 0.00 in0.0 mm
06:50 AM 46.8°F8.2°C 42.4°F5.8°C 85% 2.0 mph SE3.2 kmh SE 2.9 mph4.7 kmh 30.04 in1017.3 mb 0.00 in0.0 mm 0.00 in0.0 mm 0.00 in0.0 mm
07:00 AM 46.4°F8.0°C 42.4°F5.8°C 86% 0.9 mph ESE1.4 kmh ESE 2.9 mph4.7 kmh 30.04 in1017.3 mb 0.00 in0.0 mm 0.00 in0.0 mm 0.00 in0.0 mm
07:10 AM 46.0°F7.8°C 42.4°F5.8°C 87% 2.0 mph ESE3.2 kmh ESE 3.0 mph4.8 kmh 30.05 in1017.6 mb 0.00 in0.0 mm 0.00 in0.0 mm 0.00 in0.0 mm
07:20 AM 46.9°F8.3°C 43.0°F6.1°C 86% 2.0 mph SE3.2 kmh SE 4.0 mph6.4 kmh 30.05 in1017.6 mb 0.00 in0.0 mm 0.00 in0.0 mm 0.00 in0.0 mm
07:30 AM 46.4°F8.0°C 42.4°F5.8°C 86% 0.9 mph E1.4 kmh E 0.9 mph1.4 kmh 30.06 in1017.9 mb 0.00 in0.0 mm 0.00 in0.0 mm 0.00 in0.0 mm
07:40 AM 45.7°F7.6°C 42.1°F5.6°C 87% 0.9 mph ESE1.4 kmh ESE 2.9 mph4.7 kmh 30.06 in1017.9 mb 0.00 in0.0 mm 0.00 in0.0 mm 0.00 in0.0 mm
07:50 AM 45.7°F7.6°C 42.3°F5.7°C 88% 0.9 mph E1.4 kmh E 2.9 mph4.7 kmh 30.06 in1017.9 mb 0.00 in0.0 mm 0.00 in0.0 mm 0.00 in0.0 mm
08:00 AM 45.5°F7.5°C 42.1°F5.6°C 88% Calm Calm -- 30.06 in1017.9 mb 0.00 in0.0 mm 0.00 in0.0 mm 0.00 in0.0 mm
08:10 AM 46.0°F7.8°C 42.4°F5.8°C 87% 0.9 mph ESE1.4 kmh ESE 2.9 mph4.7 kmh 30.06 in1017.9 mb 0.00 in0.0 mm 0.00 in0.0 mm 0.00 in0.0 mm
08:20 AM 46.8°F8.2°C 42.3°F5.7°C 84% 2.0 mph ENE3.2 kmh ENE 4.0 mph6.4 kmh 30.06 in1017.9 mb 0.00 in0.0 mm 0.00 in0.0 mm 0.00 in0.0 mm
08:30 AM 47.8°F8.8°C 42.6°F5.9°C 82% 2.0 mph E3.2 kmh E 5.0 mph8.0 kmh 30.07 in1018.3 mb 0.00 in0.0 mm 0.00 in0.0 mm 0.00 in0.0 mm
08:40 AM 48.7°F9.3°C 43.2°F6.2°C 81% 0.9 mph ENE1.4 kmh ENE 4.0 mph6.4 kmh 30.08 in1018.6 mb 0.00 in0.0 mm 0.00 in0.0 mm 0.00 in0.0 mm
08:50 AM 49.6°F9.8°C 43.3°F6.3°C 79% 2.0 mph E3.2 kmh E 4.0 mph6.4 kmh 30.08 in1018.6 mb 0.00 in0.0 mm 0.00 in0.0 mm 0.00 in0.0 mm
09:00 AM 50.5°F10.3°C 43.5°F6.4°C 77% 2.9 mph NE4.7 kmh NE 4.9 mph7.9 kmh 30.09 in1019.0 mb 0.00 in0.0 mm 0.00 in0.0 mm 0.00 in0.0 mm
09:10 AM 51.1°F10.6°C 43.7°F6.5°C 76% 2.9 mph E4.7 kmh E 4.9 mph7.9 kmh 30.09 in1019.0 mb 0.00 in0.0 mm 0.00 in0.0 mm 0.00 in0.0 mm
09:20 AM 51.8°F11.0°C 44.4°F6.9°C 76% 2.0 mph E3.2 kmh E 5.0 mph8.0 kmh 30.09 in1019.0 mb 0.00 in0.0 mm 0.00 in0.0 mm 0.00 in0.0 mm
09:30 AM 52.9°F11.6°C 44.8°F7.1°C 74% 2.0 mph ENE3.2 kmh ENE 6.0 mph9.7 kmh 30.09 in1019.0 mb 0.00 in0.0 mm 0.00 in0.0 mm 0.00 in0.0 mm
09:40 AM 54.0°F12.2°C 45.1°F7.3°C 72% 2.9 mph NE4.7 kmh NE 8.1 mph13.0 kmh 30.10 in1019.3 mb 0.00 in0.0 mm 0.00 in0.0 mm 0.00 in0.0 mm
09:50 AM 55.6°F13.1°C 45.5°F7.5°C 69% 2.9 mph E4.7 kmh E 6.0 mph9.7 kmh 30.09 in1019.0 mb 0.00 in0.0 mm 0.00 in0.0 mm 0.00 in0.0 mm
10:00 AM 56.7°F13.7°C 46.2°F7.9°C 68% 2.9 mph ENE4.7 kmh ENE 8.1 mph13.0 kmh 30.09 in1019.0 mb 0.00 in0.0 mm 0.00 in0.0 mm 0.00 in0.0 mm
10:10 AM 57.9°F14.4°C 46.2°F7.9°C 65% 2.0 mph ENE3.2 kmh ENE 6.0 mph9.7 kmh 30.09 in1019.0 mb 0.00 in0.0 mm 0.00 in0.0 mm 0.00 in0.0 mm
10:20 AM 59.4°F15.2°C 46.8°F8.2°C 63% 2.0 mph ENE3.2 kmh ENE 4.9 mph7.9 kmh 30.10 in1019.3 mb 0.00 in0.0 mm 0.00 in0.0 mm 0.00 in0.0 mm
10:30 AM 60.8°F16.0°C 47.7°F8.7°C 62% 2.0 mph NE3.2 kmh NE 4.9 mph7.9 kmh 30.10 in1019.3 mb 0.00 in0.0 mm 0.00 in0.0 mm 0.00 in0.0 mm
10:40 AM 62.4°F16.9°C 48.4°F9.1°C 60% 2.0 mph NE3.2 kmh NE 4.0 mph6.4 kmh 30.10 in1019.3 mb 0.00 in0.0 mm 0.00 in0.0 mm 0.00 in0.0 mm
10:50 AM 63.7°F17.6°C 49.1°F9.5°C 59% 0.9 mph E1.4 kmh E 4.0 mph6.4 kmh 30.09 in1019.0 mb 0.00 in0.0 mm 0.00 in0.0 mm 0.00 in0.0 mm
11:00 AM 64.2°F17.9°C 48.2°F9.0°C 56% 2.0 mph NE3.2 kmh NE 2.9 mph4.7 kmh 30.09 in1019.0 mb 0.00 in0.0 mm 0.00 in0.0 mm 0.00 in0.0 mm
11:10 AM 65.7°F18.7°C 49.1°F9.5°C 55% 0.9 mph NE1.4 kmh NE 2.9 mph4.7 kmh 30.09 in1019.0 mb 0.00 in0.0 mm 0.00 in0.0 mm 0.00 in0.0 mm
11:20 AM 66.7°F19.3°C 49.1°F9.5°C 53% 0.9 mph ENE1.4 kmh ENE 2.9 mph4.7 kmh 30.08 in1018.6 mb 0.00 in0.0 mm 0.00 in0.0 mm 0.00 in0.0 mm
11:30 AM 68.2°F20.1°C 50.4°F10.2°C 53% 0.9 mph NW1.4 kmh NW 2.0 mph3.2 kmh 30.08 in1018.6 mb 0.00 in0.0 mm 0.00 in0.0 mm 0.00 in0.0 mm
11:40 AM 69.3°F20.7°C 49.3°F9.6°C 49% Calm Calm 2.0 mph3.2 kmh 30.08 in1018.6 mb 0.00 in0.0 mm 0.00 in0.0 mm 0.00 in0.0 mm
11:50 AM 70.9°F21.6°C 49.1°F9.5°C 46% Calm Calm 3.0 mph4.8 kmh 30.07 in1018.3 mb 0.00 in0.0 mm 0.00 in0.0 mm 0.00 in0.0 mm
12:00 PM 71.2°F21.8°C 48.2°F9.0°C 44% 0.9 mph NW1.4 kmh NW 3.0 mph4.8 kmh 30.06 in1017.9 mb 0.00 in0.0 mm 0.00 in0.0 mm 0.00 in0.0 mm
12:10 PM 72.3°F22.4°C 49.1°F9.5°C 44% 0.9 mph WSW1.4 kmh WSW 2.9 mph4.7 kmh 30.05 in1017.6 mb 0.00 in0.0 mm 0.00 in0.0 mm 0.00 in0.0 mm
12:20 PM 73.0°F22.8°C 49.8°F9.9°C 44% 0.9 mph NW1.4 kmh NW 2.9 mph4.7 kmh 30.04 in1017.3 mb 0.00 in0.0 mm 0.00 in0.0 mm 0.00 in0.0 mm
12:30 PM 73.8°F23.2°C 49.8°F9.9°C 43% 0.9 mph NNW1.4 kmh NNW 5.0 mph8.0 kmh 30.04 in1017.3 mb 0.00 in0.0 mm 0.00 in0.0 mm 0.00 in0.0 mm
12:40 PM 74.1°F23.4°C 48.9°F9.4°C 41% 2.0 mph NW3.2 kmh NW 4.0 mph6.4 kmh 30.03 in1016.9 mb 0.00 in0.0 mm 0.00 in0.0 mm 0.00 in0.0 mm
12:50 PM 74.3°F23.5°C 50.4°F10.2°C 43% 2.9 mph WSW4.7 kmh WSW 4.9 mph7.9 kmh 30.02 in1016.6 mb 0.00 in0.0 mm 0.00 in0.0 mm 0.00 in0.0 mm
01:00 PM 74.8°F23.8°C 51.4°F10.8°C 44% 2.0 mph WSW3.2 kmh WSW 4.0 mph6.4 kmh 30.01 in1016.3 mb 0.00 in0.0 mm 0.00 in0.0 mm 0.00 in0.0 mm
01:10 PM 75.7°F24.3°C 52.3°F11.3°C 44% 0.9 mph WNW1.4 kmh WNW 4.0 mph6.4 kmh 30.00 in1015.9 mb 0.00 in0.0 mm 0.00 in0.0 mm 0.00 in0.0 mm
01:20 PM 76.3°F24.6°C 52.7°F11.5°C 44% 2.0 mph WNW3.2 kmh WNW 4.0 mph6.4 kmh 30.00 in1015.9 mb 0.00 in0.0 mm 0.00 in0.0 mm 0.00 in0.0 mm
01:30 PM 77.2°F25.1°C 50.4°F10.2°C 39% 2.9 mph W4.7 kmh W 8.1 mph13.0 kmh 29.99 in1015.6 mb 0.00 in0.0 mm 0.00 in0.0 mm 0.00 in0.0 mm
01:40 PM 77.9°F25.5°C 49.5°F9.7°C 37% 2.9 mph ESE4.7 kmh ESE 6.9 mph11.1 kmh 29.99 in1015.6 mb 0.00 in0.0 mm 0.00 in0.0 mm 0.00 in0.0 mm
01:50 PM 77.5°F25.3°C 56.3°F13.5°C 48% 4.0 mph WNW6.4 kmh WNW 8.1 mph13.0 kmh 29.99 in1015.6 mb 0.00 in0.0 mm 0.00 in0.0 mm 0.00 in0.0 mm
02:00 PM 75.4°F24.1°C 57.6°F14.2°C 54% 6.9 mph WSW11.1 kmh WSW 11.0 mph17.7 kmh 29.98 in1015.2 mb 0.00 in0.0 mm 0.00 in0.0 mm 0.00 in0.0 mm
02:10 PM 73.6°F23.1°C 56.8°F13.8°C 56% 6.9 mph NW11.1 kmh NW 12.1 mph19.5 kmh 29.98 in1015.2 mb 0.00 in0.0 mm 0.00 in0.0 mm 0.00 in0.0 mm
02:20 PM 72.1°F22.3°C 56.1°F13.4°C 57% 6.9 mph WNW11.1 kmh WNW 13.0 mph20.9 kmh 29.98 in1015.2 mb 0.00 in0.0 mm 0.00 in0.0 mm 0.00 in0.0 mm
02:30 PM 70.5°F21.4°C 55.9°F13.3°C 60% 8.1 mph WSW13.0 kmh WSW 12.1 mph19.5 kmh 29.98 in1015.2 mb 0.00 in0.0 mm 0.00 in0.0 mm 0.00 in0.0 mm
02:40 PM 70.0°F21.1°C 55.9°F13.3°C 61% 6.9 mph WNW11.1 kmh WNW 11.0 mph17.7 kmh 29.98 in1015.2 mb 0.00 in0.0 mm 0.00 in0.0 mm 0.00 in0.0 mm
02:50 PM 70.0°F21.1°C 58.1°F14.5°C 66% 6.0 mph W9.7 kmh W 10.1 mph16.3 kmh 29.99 in1015.6 mb 0.00 in0.0 mm 0.00 in0.0 mm 0.00 in0.0 mm
03:00 PM 67.8°F19.9°C 57.2°F14.0°C 69% 8.9 mph WNW14.3 kmh WNW 14.1 mph22.7 kmh 29.99 in1015.6 mb 0.00 in0.0 mm 0.00 in0.0 mm 0.00 in0.0 mm
03:10 PM 67.1°F19.5°C 55.4°F13.0°C 66% 8.9 mph NW14.3 kmh NW 15.0 mph24.1 kmh 30.00 in1015.9 mb 0.00 in0.0 mm 0.00 in0.0 mm 0.00 in0.0 mm
03:20 PM 66.6°F19.2°C 56.1°F13.4°C 69% 8.1 mph W13.0 kmh W 14.1 mph22.7 kmh 30.00 in1015.9 mb 0.00 in0.0 mm 0.00 in0.0 mm 0.00 in0.0 mm
03:30 PM 66.0°F18.9°C 57.2°F14.0°C 73% 6.9 mph WSW11.1 kmh WSW 13.0 mph20.9 kmh 30.00 in1015.9 mb 0.00 in0.0 mm 0.00 in0.0 mm 0.00 in0.0 mm
03:40 PM 64.9°F18.3°C 58.3°F14.6°C 79% 6.9 mph WNW11.1 kmh WNW 12.1 mph19.5 kmh 30.01 in1016.3 mb 0.00 in0.0 mm 0.00 in0.0 mm 0.00 in0.0 mm
03:50 PM 63.7°F17.6°C 57.0°F13.9°C 79% 6.0 mph SW9.7 kmh SW 11.0 mph17.7 kmh 30.01 in1016.3 mb 0.00 in0.0 mm 0.00 in0.0 mm 0.00 in0.0 mm
04:00 PM 63.0°F17.2°C 56.7°F13.7°C 80% 4.9 mph W7.9 kmh W 10.1 mph16.3 kmh 30.01 in1016.3 mb 0.00 in0.0 mm 0.00 in0.0 mm 0.00 in0.0 mm
04:10 PM 62.8°F17.1°C 56.5°F13.6°C 80% 4.0 mph SW6.4 kmh SW 11.0 mph17.7 kmh 30.01 in1016.3 mb 0.00 in0.0 mm 0.00 in0.0 mm 0.00 in0.0 mm
04:20 PM 61.2°F16.2°C 55.9°F13.3°C 83% 6.0 mph WSW9.7 kmh WSW 12.1 mph19.5 kmh 30.01 in1016.3 mb 0.00 in0.0 mm 0.00 in0.0 mm 0.00 in0.0 mm
04:30 PM 61.0°F16.1°C 56.1°F13.4°C 84% 4.0 mph SSW6.4 kmh SSW 8.9 mph14.3 kmh 30.01 in1016.3 mb 0.00 in0.0 mm 0.00 in0.0 mm 0.00 in0.0 mm
04:40 PM 61.0°F16.1°C 56.1°F13.4°C 84% 4.9 mph WSW7.9 kmh WSW 8.1 mph13.0 kmh 30.01 in1016.3 mb 0.00 in0.0 mm 0.00 in0.0 mm 0.00 in0.0 mm
04:50 PM 61.5°F16.4°C 56.7°F13.7°C 84% 2.9 mph W4.7 kmh W 6.9 mph11.1 kmh 30.01 in1016.3 mb 0.00 in0.0 mm 0.00 in0.0 mm 0.00 in0.0 mm
05:00 PM 62.1°F16.7°C 56.8°F13.8°C 83% 2.9 mph SW4.7 kmh SW 6.0 mph9.7 kmh 30.00 in1015.9 mb 0.00 in0.0 mm 0.00 in0.0 mm 0.00 in0.0 mm
05:10 PM 62.4°F16.9°C 56.5°F13.6°C 81% 2.0 mph E3.2 kmh E 4.9 mph7.9 kmh 30.00 in1015.9 mb 0.00 in0.0 mm 0.00 in0.0 mm 0.00 in0.0 mm
05:20 PM 62.8°F17.1°C 56.1°F13.4°C 79% 2.0 mph SSE3.2 kmh SSE 4.9 mph7.9 kmh 30.00 in1015.9 mb 0.00 in0.0 mm 0.00 in0.0 mm 0.00 in0.0 mm
05:30 PM 62.6°F17.0°C 55.9°F13.3°C 79% 0.9 mph S1.4 kmh S 4.0 mph6.4 kmh 29.99 in1015.6 mb 0.00 in0.0 mm 0.00 in0.0 mm 0.00 in0.0 mm
05:40 PM 62.8°F17.1°C 55.8°F13.2°C 78% 0.9 mph SE1.4 kmh SE 4.0 mph6.4 kmh 29.99 in1015.6 mb 0.00 in0.0 mm 0.00 in0.0 mm 0.00 in0.0 mm
05:50 PM 62.8°F17.1°C 55.8°F13.2°C 78% Calm Calm 2.0 mph3.2 kmh 29.99 in1015.6 mb 0.00 in0.0 mm 0.00 in0.0 mm 0.00 in0.0 mm
06:00 PM 62.1°F16.7°C 55.0°F12.8°C 78% Calm Calm 2.9 mph4.7 kmh 29.99 in1015.6 mb 0.00 in0.0 mm 0.00 in0.0 mm 0.00 in0.0 mm
06:10 PM 61.3°F16.3°C 54.5°F12.5°C 78% 0.9 mph ESE1.4 kmh ESE 2.9 mph4.7 kmh 29.98 in1015.2 mb 0.00 in0.0 mm 0.00 in0.0 mm 0.00 in0.0 mm
06:20 PM 61.0°F16.1°C 54.5°F12.5°C 79% 0.9 mph ESE1.4 kmh ESE 2.0 mph3.2 kmh 29.98 in1015.2 mb 0.00 in0.0 mm 0.00 in0.0 mm 0.00 in0.0 mm
06:30 PM 60.4°F15.8°C 54.0°F12.2°C 79% Calm Calm -- 29.98 in1015.2 mb 0.00 in0.0 mm 0.00 in0.0 mm 0.00 in0.0 mm
06:50 PM 59.4°F15.2°C 53.8°F12.1°C 82% Calm Calm -- 29.99 in1015.6 mb 0.00 in0.0 mm 0.00 in0.0 mm 0.00 in0.0 mm
07:00 PM 58.5°F14.7°C 53.2°F11.8°C 83% Calm Calm -- 29.99 in1015.6 mb 0.00 in0.0 mm 0.00 in0.0 mm 0.00 in0.0 mm
07:10 PM 57.4°F14.1°C 52.9°F11.6°C 85% Calm Calm -- 30.00 in1015.9 mb 0.00 in0.0 mm 0.00 in0.0 mm 0.00 in0.0 mm
07:20 PM 56.8°F13.8°C 53.1°F11.7°C 87% Calm Calm 0.9 mph1.4 kmh 30.00 in1015.9 mb 0.00 in0.0 mm 0.00 in0.0 mm 0.00 in0.0 mm
07:30 PM 56.1°F13.4°C 52.3°F11.3°C 87% Calm Calm 0.9 mph1.4 kmh 30.00 in1015.9 mb 0.00 in0.0 mm 0.00 in0.0 mm 0.00 in0.0 mm
07:40 PM 55.6°F13.1°C 51.8°F11.0°C 87% Calm Calm 0.9 mph1.4 kmh 30.00 in1015.9 mb 0.00 in0.0 mm 0.00 in0.0 mm 0.00 in0.0 mm
07:50 PM 55.2°F12.9°C 51.8°F11.0°C 88% 2.0 mph ESE3.2 kmh ESE 4.0 mph6.4 kmh 30.00 in1015.9 mb 0.00 in0.0 mm 0.00 in0.0 mm 0.00 in0.0 mm
08:00 PM 55.0°F12.8°C 51.3°F10.7°C 87% 0.9 mph E1.4 kmh E 4.0 mph6.4 kmh 29.99 in1015.6 mb 0.00 in0.0 mm 0.00 in0.0 mm 0.00 in0.0 mm
08:10 PM 54.9°F12.7°C 51.1°F10.6°C 87% Calm Calm 0.9 mph1.4 kmh 29.99 in1015.6 mb 0.00 in0.0 mm 0.00 in0.0 mm 0.00 in0.0 mm
08:20 PM 54.7°F12.6°C 51.3°F10.7°C 88% Calm Calm 2.0 mph3.2 kmh 30.00 in1015.9 mb 0.00 in0.0 mm 0.00 in0.0 mm 0.00 in0.0 mm
08:30 PM 54.5°F12.5°C 50.7°F10.4°C 87% 2.0 mph ESE3.2 kmh ESE 4.0 mph6.4 kmh 29.99 in1015.6 mb 0.00 in0.0 mm 0.00 in0.0 mm 0.00 in0.0 mm
08:40 PM 54.9°F12.7°C 51.6°F10.9°C 89% 2.0 mph E3.2 kmh E 4.0 mph6.4 kmh 29.99 in1015.6 mb 0.00 in0.0 mm 0.00 in0.0 mm 0.00 in0.0 mm
08:50 PM 54.3°F12.4°C 50.5°F10.3°C 87% Calm Calm 2.0 mph3.2 kmh 30.00 in1015.9 mb 0.00 in0.0 mm 0.00 in0.0 mm 0.00 in0.0 mm
09:00 PM 54.0°F12.2°C 49.8°F9.9°C 86% 2.0 mph E3.2 kmh E 4.0 mph6.4 kmh 29.99 in1015.6 mb 0.00 in0.0 mm 0.00 in0.0 mm 0.00 in0.0 mm
09:10 PM 53.8°F12.1°C 49.5°F9.7°C 85% 0.9 mph NE1.4 kmh NE 2.0 mph3.2 kmh 29.99 in1015.6 mb 0.00 in0.0 mm 0.00 in0.0 mm 0.00 in0.0 mm
09:20 PM 53.2°F11.8°C 49.1°F9.5°C 86% 2.0 mph NE3.2 kmh NE 3.0 mph4.8 kmh 29.99 in1015.6 mb 0.00 in0.0 mm 0.00 in0.0 mm 0.00 in0.0 mm
09:30 PM 53.2°F11.8°C 49.8°F9.9°C 88% 2.0 mph ENE3.2 kmh ENE 5.0 mph8.0 kmh 29.99 in1015.6 mb 0.00 in0.0 mm 0.00 in0.0 mm 0.00 in0.0 mm
09:40 PM 53.4°F11.9°C 50.2°F10.1°C 89% 2.0 mph NE3.2 kmh NE 6.0 mph9.7 kmh 30.00 in1015.9 mb 0.00 in0.0 mm 0.00 in0.0 mm 0.00 in0.0 mm
09:50 PM 53.2°F11.8°C 50.4°F10.2°C 90% 2.9 mph NE4.7 kmh NE 4.9 mph7.9 kmh 30.00 in1015.9 mb 0.00 in0.0 mm 0.00 in0.0 mm 0.00 in0.0 mm
10:00 PM 53.2°F11.8°C 50.4°F10.2°C 90% 4.0 mph ENE6.4 kmh ENE 8.1 mph13.0 kmh 29.99 in1015.6 mb 0.00 in0.0 mm 0.00 in0.0 mm 0.00 in0.0 mm
10:10 PM 53.1°F11.7°C 49.8°F9.9°C 89% 4.0 mph E6.4 kmh E 8.1 mph13.0 kmh 29.99 in1015.6 mb 0.00 in0.0 mm 0.00 in0.0 mm 0.00 in0.0 mm
10:20 PM 52.3°F11.3°C 48.9°F9.4°C 88% 0.9 mph SE1.4 kmh SE 4.9 mph7.9 kmh 30.00 in1015.9 mb 0.00 in0.0 mm 0.00 in0.0 mm 0.00 in0.0 mm
10:30 PM 52.2°F11.2°C 49.1°F9.5°C 89% 0.9 mph ENE1.4 kmh ENE 2.9 mph4.7 kmh 30.00 in1015.9 mb 0.00 in0.0 mm 0.00 in0.0 mm 0.00 in0.0 mm
10:40 PM 51.4°F10.8°C 48.4°F9.1°C 89% Calm Calm 0.9 mph1.4 kmh 30.01 in1016.3 mb 0.00 in0.0 mm 0.00 in0.0 mm 0.00 in0.0 mm
10:50 PM 51.1°F10.6°C 48.0°F8.9°C 89% Calm Calm -- 30.01 in1016.3 mb 0.00 in0.0 mm 0.00 in0.0 mm 0.00 in0.0 mm
11:00 PM 50.5°F10.3°C 47.5°F8.6°C 89% Calm Calm 1.0 mph1.6 kmh 30.01 in1016.3 mb 0.00 in0.0 mm 0.00 in0.0 mm 0.00 in0.0 mm
11:10 PM 50.0°F10.0°C 47.1°F8.4°C 90% 0.9 mph SE1.4 kmh SE 2.0 mph3.2 kmh 30.01 in1016.3 mb 0.00 in0.0 mm 0.00 in0.0 mm 0.00 in0.0 mm
11:20 PM 50.2°F10.1°C 47.7°F8.7°C 91% 2.0 mph SE3.2 kmh SE 2.9 mph4.7 kmh 30.01 in1016.3 mb 0.00 in0.0 mm 0.00 in0.0 mm 0.00 in0.0 mm
11:30 PM 49.8°F9.9°C 46.9°F8.3°C 90% 0.9 mph SE1.4 kmh SE 2.0 mph3.2 kmh 30.01 in1016.3 mb 0.00 in0.0 mm 0.00 in0.0 mm 0.00 in0.0 mm
11:40 PM 49.5°F9.7°C 46.9°F8.3°C 91% Calm Calm 0.9 mph1.4 kmh 30.02 in1016.6 mb 0.00 in0.0 mm 0.00 in0.0 mm 0.00 in0.0 mm
11:50 PM 49.3°F9.6°C 46.8°F8.2°C 91% Calm Calm 1.0 mph1.6 kmh 30.02 in1016.6 mb 0.00 in0.0 mm 0.00 in0.0 mm 0.00 in0.0 mm